Time;durP1;ratioP1;P1;durP2;ratioP2;P2;SDS_P1;SDS_P2;PMS_P1;PMS_P2;Temp;Humidity;BMP_temperature;BMP_pressure;BME280_temperature;BME280_humidity;BME280_pressure;Samples;Min_cycle;Max_cycle;Signal;HPM_P1;HPM_P2
2023/05/16 00:00:17;;;;;;;;;;;8.60;99.90;;;;;;5061296;28;19935;-71
2023/05/16 00:02:42;;;;;;;;;;;8.60;99.90;;;;;;5059639;28;19925;-71
2023/05/16 00:05:09;;;;;;;;;;;8.60;99.90;;;;;;5049164;28;19931;-70
2023/05/16 00:07:35;;;;;;;;;;;8.50;99.90;;;;;;5053573;28;19925;-70
2023/05/16 00:10:01;;;;;;;;;;;8.60;99.90;;;;;;5061451;28;20297;-70
2023/05/16 00:12:27;;;;;;;;;;;8.50;99.90;;;;;;5060447;28;19924;-70
2023/05/16 00:14:52;;;;;;;;;;;8.50;99.90;;;;;;5065033;28;20316;-71
2023/05/16 00:17:19;;;;;;;;;;;8.60;99.90;;;;;;5046069;28;19981;-71
2023/05/16 00:19:46;;;;;;;;;;;8.50;99.90;;;;;;5047986;28;20014;-71
2023/05/16 00:22:11;;;;;;;;;;;8.50;99.90;;;;;;5043370;28;20374;-71
2023/05/16 00:24:37;;;;;;;;;;;8.40;99.90;;;;;;5038426;28;19946;-70
2023/05/16 00:27:03;;;;;;;;;;;8.30;99.90;;;;;;5066397;28;20374;-71
2023/05/16 00:29:31;;;;;;;;;;;8.40;99.90;;;;;;5069908;28;19924;-71
2023/05/16 00:31:57;;;;;;;;;;;8.30;99.90;;;;;;5063162;28;19937;-70
2023/05/16 00:34:22;;;;;;;;;;;8.40;99.90;;;;;;5065506;28;20743;-71
2023/05/16 00:36:51;;;;;;;;;;;8.30;99.90;;;;;;5067093;28;19925;-71
2023/05/16 00:39:16;;;;;;;;;;;8.30;99.90;;;;;;5076557;28;20371;-71
2023/05/16 00:41:42;;;;;;;;;;;8.30;99.90;;;;;;5056899;28;19925;-70
2023/05/16 00:44:08;;;;;;;;;;;8.30;99.90;;;;;;5083628;28;19937;-72
2023/05/16 00:46:34;;;;;;;;;;;8.20;99.90;;;;;;5071942;28;19928;-71
2023/05/16 00:49:00;;;;;;;;;;;8.30;99.90;;;;;;5062062;28;19978;-71
2023/05/16 00:51:25;;;;;;;;;;;8.30;99.90;;;;;;5060206;28;20370;-71
2023/05/16 00:53:51;;;;;;;;;;;8.30;99.90;;;;;;5071056;28;19925;-71
2023/05/16 00:56:16;;;;;;;;;;;8.30;99.90;;;;;;5066271;28;19925;-71
2023/05/16 00:58:42;;;;;;;;;;;8.30;99.90;;;;;;5046534;28;20011;-71
2023/05/16 01:01:11;;;;;;;;;;;8.30;99.90;;;;;;5067185;28;20389;-71
2023/05/16 01:03:37;;;;;;;;;;;8.30;99.90;;;;;;5061637;28;20353;-71
2023/05/16 01:06:03;;;;;;;;;;;8.30;99.90;;;;;;5056452;28;19968;-71
2023/05/16 01:08:28;;;;;;;;;;;8.40;99.90;;;;;;5065711;28;20014;-71
2023/05/16 01:11:01;;;;;;;;;;;8.40;99.90;;;;;;5048246;28;19929;-71
2023/05/16 01:13:32;;;;;;;;;;;8.40;99.90;;;;;;5066044;28;19931;-71
2023/05/16 01:16:21;;;;;;;;;;;8.30;99.90;;;;;;5060757;28;19928;-71
2023/05/16 01:18:54;;;;;;;;;;;8.30;99.90;;;;;;5064079;28;19965;-71
2023/05/16 01:21:24;;;;;;;;;;;8.40;99.90;;;;;;5068779;28;19930;-71
2023/05/16 01:24:02;;;;;;;;;;;8.40;99.90;;;;;;5059037;28;19931;-71
2023/05/16 01:26:28;;;;;;;;;;;8.20;99.90;;;;;;5067962;28;19977;-71
2023/05/16 01:28:54;;;;;;;;;;;8.20;99.90;;;;;;5061937;28;19932;-71
2023/05/16 01:31:20;;;;;;;;;;;8.30;99.90;;;;;;5035371;28;19948;-69
2023/05/16 01:33:46;;;;;;;;;;;8.10;99.90;;;;;;5063013;28;20386;-70
2023/05/16 01:36:15;;;;;;;;;;;8.10;99.90;;;;;;5056514;28;19935;-71
2023/05/16 01:38:44;;;;;;;;;;;8.10;99.90;;;;;;5067745;28;19956;-70
2023/05/16 01:41:23;;;;;;;;;;;8.10;99.90;;;;;;5069590;28;19928;-70
2023/05/16 01:43:50;;;;;;;;;;;8.00;99.90;;;;;;5058693;28;19932;-70
2023/05/16 01:46:20;;;;;;;;;;;8.10;99.90;;;;;;5066445;28;20006;-70
2023/05/16 01:48:53;;;;;;;;;;;8.00;99.90;;;;;;5063277;28;20019;-70
2023/05/16 01:51:21;;;;;;;;;;;7.90;99.90;;;;;;5060575;28;19924;-70
2023/05/16 01:53:48;;;;;;;;;;;7.90;99.90;;;;;;5065269;28;20400;-71
2023/05/16 01:56:15;;;;;;;;;;;7.90;99.90;;;;;;5067363;28;19925;-70
2023/05/16 01:58:41;;;;;;;;;;;7.90;99.90;;;;;;5051146;28;20296;-71
2023/05/16 02:01:07;;;;;;;;;;;7.90;99.90;;;;;;5063829;28;20443;-71
2023/05/16 02:03:33;;;;;;;;;;;8.00;99.90;;;;;;5041595;28;19925;-70
2023/05/16 02:05:58;;;;;;;;;;;7.90;99.90;;;;;;5064610;28;19924;-71
2023/05/16 02:08:25;;;;;;;;;;;7.90;99.90;;;;;;5065661;28;20395;-71
2023/05/16 02:10:53;;;;;;;;;;;7.90;99.90;;;;;;5060255;28;19970;-71
2023/05/16 02:13:19;;;;;;;;;;;7.90;99.90;;;;;;5061457;28;19987;-71
2023/05/16 02:15:45;;;;;;;;;;;7.90;99.90;;;;;;5054804;28;20378;-70
2023/05/16 02:18:11;;;;;;;;;;;7.90;99.90;;;;;;5060906;28;19932;-70
2023/05/16 02:20:38;;;;;;;;;;;7.90;99.90;;;;;;5044039;28;20298;-69
2023/05/16 02:23:04;;;;;;;;;;;7.90;99.90;;;;;;5059323;28;19931;-70
2023/05/16 02:25:29;;;;;;;;;;;8.00;99.90;;;;;;5059579;28;19925;-70
2023/05/16 02:27:55;;;;;;;;;;;8.00;99.90;;;;;;5042971;28;19931;-71
2023/05/16 02:30:20;;;;;;;;;;;8.00;99.90;;;;;;5060374;28;19924;-70
2023/05/16 02:32:47;;;;;;;;;;;8.00;99.90;;;;;;5073826;28;19931;-70
2023/05/16 02:35:13;;;;;;;;;;;8.10;99.90;;;;;;5061040;28;19928;-70
2023/05/16 02:37:39;;;;;;;;;;;8.00;99.90;;;;;;5064702;28;20276;-71
2023/05/16 02:40:06;;;;;;;;;;;8.00;99.90;;;;;;5058146;28;20451;-70
2023/05/16 02:42:31;;;;;;;;;;;8.00;99.90;;;;;;5063821;28;20306;-70
2023/05/16 02:44:57;;;;;;;;;;;8.00;99.90;;;;;;5055214;28;19924;-71
2023/05/16 02:47:25;;;;;;;;;;;8.00;99.90;;;;;;5072033;28;19925;-70
2023/05/16 02:49:53;;;;;;;;;;;8.00;99.90;;;;;;5063510;28;19978;-71
2023/05/16 02:52:19;;;;;;;;;;;7.90;99.90;;;;;;5069594;28;19928;-71
2023/05/16 02:54:44;;;;;;;;;;;7.90;99.90;;;;;;5064275;28;20290;-70
2023/05/16 02:57:11;;;;;;;;;;;8.00;99.90;;;;;;5060145;28;20011;-69
2023/05/16 02:59:36;;;;;;;;;;;7.90;99.90;;;;;;5065327;28;19931;-71
2023/05/16 03:02:02;;;;;;;;;;;7.90;99.90;;;;;;5072415;28;19924;-70
2023/05/16 03:04:28;;;;;;;;;;;7.90;99.90;;;;;;5061920;28;20298;-70
2023/05/16 03:06:53;;;;;;;;;;;8.10;99.90;;;;;;5065187;28;19932;-72
2023/05/16 03:09:19;;;;;;;;;;;8.00;99.90;;;;;;5028020;28;19986;-69
2023/05/16 03:11:44;;;;;;;;;;;8.00;99.90;;;;;;5045213;28;20389;-71
2023/05/16 03:14:11;;;;;;;;;;;8.00;99.90;;;;;;5056158;28;19931;-71
2023/05/16 03:16:37;;;;;;;;;;;8.00;99.90;;;;;;5069539;28;19959;-70
2023/05/16 03:19:03;;;;;;;;;;;8.00;99.90;;;;;;5067775;28;19928;-71
2023/05/16 03:21:29;;;;;;;;;;;8.00;99.90;;;;;;5060709;28;19932;-71
2023/05/16 03:23:54;;;;;;;;;;;8.00;99.90;;;;;;5061380;28;19924;-70
2023/05/16 03:26:21;;;;;;;;;;;8.00;99.90;;;;;;5068133;28;19948;-70
2023/05/16 03:28:47;;;;;;;;;;;7.90;99.90;;;;;;5063189;28;19979;-70
2023/05/16 03:31:13;;;;;;;;;;;7.90;99.90;;;;;;5065433;28;19932;-71
2023/05/16 03:33:38;;;;;;;;;;;7.90;99.90;;;;;;5066983;28;19924;-71
2023/05/16 03:36:04;;;;;;;;;;;7.90;99.90;;;;;;5060157;28;19925;-70
2023/05/16 03:38:29;;;;;;;;;;;7.90;99.90;;;;;;5070069;28;19932;-70
2023/05/16 03:40:55;;;;;;;;;;;7.90;99.90;;;;;;5072502;28;20007;-71
2023/05/16 03:43:20;;;;;;;;;;;7.90;99.90;;;;;;5071053;28;19932;-70
2023/05/16 03:45:46;;;;;;;;;;;7.90;99.90;;;;;;5049443;28;19931;-71
2023/05/16 03:48:11;;;;;;;;;;;8.10;99.90;;;;;;5070013;28;20367;-71
2023/05/16 03:50:38;;;;;;;;;;;7.90;99.90;;;;;;5066497;28;20385;-71
2023/05/16 03:53:04;;;;;;;;;;;7.90;99.90;;;;;;5056787;28;19932;-71
2023/05/16 03:55:30;;;;;;;;;;;7.90;99.90;;;;;;5058806;28;19929;-71
2023/05/16 03:57:55;;;;;;;;;;;7.90;99.90;;;;;;5069953;28;19924;-71
2023/05/16 04:00:21;;;;;;;;;;;7.90;99.90;;;;;;5064438;28;19932;-70
2023/05/16 04:02:47;;;;;;;;;;;7.90;99.90;;;;;;5061002;28;20359;-71
2023/05/16 04:05:12;;;;;;;;;;;7.90;99.90;;;;;;5049181;28;19928;-71
2023/05/16 04:07:38;;;;;;;;;;;7.90;99.90;;;;;;5067248;28;19924;-71
2023/05/16 04:10:04;;;;;;;;;;;7.90;99.90;;;;;;5061915;28;20349;-71
2023/05/16 04:12:30;;;;;;;;;;;7.90;99.90;;;;;;5037406;28;19978;-71
2023/05/16 04:14:55;;;;;;;;;;;7.80;99.90;;;;;;5064068;28;20299;-70
2023/05/16 04:17:21;;;;;;;;;;;7.80;99.90;;;;;;5059331;28;19929;-71
2023/05/16 04:19:46;;;;;;;;;;;7.90;99.90;;;;;;5069983;28;20054;-70
2023/05/16 04:22:14;;;;;;;;;;;7.80;99.90;;;;;;5069096;28;19928;-70
2023/05/16 04:24:40;;;;;;;;;;;7.80;99.90;;;;;;5048947;28;20362;-70
2023/05/16 04:27:09;;;;;;;;;;;7.80;99.90;;;;;;5062414;28;19975;-71
2023/05/16 04:29:34;;;;;;;;;;;7.80;99.90;;;;;;5071909;28;20434;-71
2023/05/16 04:32:01;;;;;;;;;;;7.90;99.90;;;;;;5065982;28;20016;-71
2023/05/16 04:34:26;;;;;;;;;;;7.80;99.90;;;;;;5063558;28;19948;-71
2023/05/16 04:36:52;;;;;;;;;;;7.90;99.90;;;;;;5064110;28;20370;-71
2023/05/16 04:39:18;;;;;;;;;;;7.90;99.90;;;;;;5071749;28;19924;-71
2023/05/16 04:41:43;;;;;;;;;;;8.00;99.90;;;;;;5072547;28;19931;-70
2023/05/16 04:44:10;;;;;;;;;;;8.00;99.90;;;;;;5054427;28;20016;-70
2023/05/16 04:46:35;;;;;;;;;;;8.10;99.90;;;;;;5051824;28;19967;-70
2023/05/16 04:49:01;;;;;;;;;;;8.10;99.90;;;;;;5054654;28;19967;-71
2023/05/16 04:51:26;;;;;;;;;;;8.10;99.90;;;;;;5062288;28;19924;-71
2023/05/16 04:53:52;;;;;;;;;;;8.20;99.90;;;;;;5067083;28;19924;-70
2023/05/16 04:56:17;;;;;;;;;;;8.30;99.90;;;;;;5066710;28;20033;-71
2023/05/16 04:58:43;;;;;;;;;;;8.40;99.90;;;;;;5059439;28;19925;-71
2023/05/16 05:01:08;;;;;;;;;;;8.40;99.90;;;;;;5059365;28;19985;-71
2023/05/16 05:03:34;;;;;;;;;;;8.60;99.90;;;;;;5063149;28;20393;-71
2023/05/16 05:06:00;;;;;;;;;;;8.50;99.90;;;;;;5068007;28;19925;-70
2023/05/16 05:08:26;;;;;;;;;;;8.60;99.90;;;;;;5052719;28;19951;-71
2023/05/16 05:10:51;;;;;;;;;;;8.70;99.90;;;;;;5069859;28;19924;-71
2023/05/16 05:13:17;;;;;;;;;;;8.90;99.90;;;;;;5059277;28;19925;-71
2023/05/16 05:15:42;;;;;;;;;;;9.00;99.90;;;;;;5059320;28;19924;-71
2023/05/16 05:18:08;;;;;;;;;;;8.90;99.90;;;;;;5060736;28;20477;-70
2023/05/16 05:20:33;;;;;;;;;;;9.00;99.90;;;;;;5064408;28;20398;-71
2023/05/16 05:22:59;;;;;;;;;;;9.00;99.90;;;;;;5047858;28;19928;-70
2023/05/16 05:25:25;;;;;;;;;;;8.90;99.90;;;;;;5067816;28;19924;-71
2023/05/16 05:27:50;;;;;;;;;;;9.00;99.90;;;;;;5064129;28;19932;-70
2023/05/16 05:30:16;;;;;;;;;;;9.10;99.90;;;;;;5065820;28;20371;-70
2023/05/16 05:32:41;;;;;;;;;;;9.30;99.90;;;;;;5071063;28;19931;-70
2023/05/16 05:35:07;;;;;;;;;;;9.50;99.90;;;;;;5058340;28;20418;-70
2023/05/16 05:37:33;;;;;;;;;;;9.60;99.90;;;;;;5064432;28;20019;-70
2023/05/16 05:39:58;;;;;;;;;;;9.90;99.90;;;;;;5043549;28;19971;-69
2023/05/16 05:42:24;;;;;;;;;;;10.00;99.90;;;;;;5066676;28;19931;-70
2023/05/16 05:44:53;;;;;;;;;;;10.10;99.90;;;;;;5061721;28;19933;-70
2023/05/16 05:47:21;;;;;;;;;;;10.30;99.90;;;;;;5061432;28;19924;-69
2023/05/16 05:49:47;;;;;;;;;;;10.40;99.90;;;;;;5058540;28;20344;-70
2023/05/16 05:52:12;;;;;;;;;;;10.30;99.90;;;;;;5061284;28;19959;-72
2023/05/16 05:54:38;;;;;;;;;;;10.50;99.90;;;;;;5069431;28;19932;-70
2023/05/16 05:57:03;;;;;;;;;;;10.80;99.90;;;;;;5082284;28;19943;-69
2023/05/16 05:59:29;;;;;;;;;;;11.00;99.90;;;;;;5069763;28;19924;-70
2023/05/16 06:01:54;;;;;;;;;;;11.30;99.90;;;;;;5063218;28;20413;-70
2023/05/16 06:04:20;;;;;;;;;;;11.40;99.90;;;;;;5060279;28;19924;-70
2023/05/16 06:06:46;;;;;;;;;;;11.60;99.90;;;;;;5065826;28;20360;-70
2023/05/16 06:09:14;;;;;;;;;;;11.60;99.90;;;;;;5058142;28;20413;-70
2023/05/16 06:11:40;;;;;;;;;;;11.50;99.90;;;;;;5065108;28;19967;-70
2023/05/16 06:14:06;;;;;;;;;;;11.50;99.90;;;;;;5068525;28;19928;-68
2023/05/16 06:16:32;;;;;;;;;;;11.40;99.90;;;;;;5070254;28;19924;-69
2023/05/16 06:18:58;;;;;;;;;;;11.40;99.90;;;;;;5049998;28;20023;-69
2023/05/16 06:21:23;;;;;;;;;;;11.20;99.90;;;;;;5071046;28;19931;-70
2023/05/16 06:23:52;;;;;;;;;;;11.30;99.90;;;;;;5054979;28;20310;-71
2023/05/16 06:26:17;;;;;;;;;;;11.30;99.90;;;;;;5042458;28;19932;-70
2023/05/16 06:28:43;;;;;;;;;;;11.30;99.90;;;;;;5063809;28;19924;-69
2023/05/16 06:31:09;;;;;;;;;;;11.20;99.90;;;;;;5071409;28;19935;-70
2023/05/16 06:33:34;;;;;;;;;;;11.00;99.90;;;;;;5076596;28;19931;-70
2023/05/16 06:36:00;;;;;;;;;;;11.00;99.90;;;;;;5063079;28;19975;-70
2023/05/16 06:38:25;;;;;;;;;;;11.00;99.90;;;;;;5065949;28;19948;-70
2023/05/16 06:40:51;;;;;;;;;;;11.20;99.90;;;;;;5074816;28;19928;-71
2023/05/16 06:43:16;;;;;;;;;;;11.30;99.90;;;;;;5078877;28;19928;-70
2023/05/16 06:45:43;;;;;;;;;;;11.40;99.90;;;;;;5063915;28;19932;-70
2023/05/16 06:48:09;;;;;;;;;;;11.50;99.90;;;;;;5067604;28;19925;-69
2023/05/16 06:50:34;;;;;;;;;;;11.40;99.90;;;;;;5073417;28;19935;-71
2023/05/16 06:53:00;;;;;;;;;;;11.20;99.90;;;;;;5066756;28;19982;-70
2023/05/16 06:55:26;;;;;;;;;;;11.10;99.90;;;;;;5046063;28;19929;-70
2023/05/16 06:57:51;;;;;;;;;;;11.00;99.90;;;;;;5049502;28;19979;-71
2023/05/16 07:00:17;;;;;;;;;;;11.10;99.90;;;;;;5046723;28;19924;-68
2023/05/16 07:02:43;;;;;;;;;;;11.20;99.90;;;;;;5037859;28;19932;-70
2023/05/16 07:05:08;;;;;;;;;;;11.30;99.90;;;;;;5056717;28;19933;-69
2023/05/16 07:07:34;;;;;;;;;;;11.50;99.90;;;;;;5055945;28;20400;-69
2023/05/16 07:10:00;;;;;;;;;;;11.50;99.90;;;;;;5055870;28;19929;-69
2023/05/16 07:12:25;;;;;;;;;;;11.50;99.90;;;;;;5057135;28;20306;-69
2023/05/16 07:14:51;;;;;;;;;;;11.60;99.90;;;;;;5049622;28;19925;-70
2023/05/16 07:17:16;;;;;;;;;;;11.70;99.90;;;;;;5052243;28;19925;-69
2023/05/16 07:19:42;;;;;;;;;;;11.80;99.90;;;;;;5054486;28;19924;-70
2023/05/16 07:22:07;;;;;;;;;;;12.00;99.90;;;;;;5035590;28;19925;-69
2023/05/16 07:24:35;;;;;;;;;;;12.00;99.90;;;;;;5036826;28;20055;-69
2023/05/16 07:27:00;;;;;;;;;;;11.80;99.90;;;;;;5036277;28;19933;-69
2023/05/16 07:29:26;;;;;;;;;;;11.60;99.90;;;;;;5036046;28;19924;-69
2023/05/16 07:31:51;;;;;;;;;;;11.60;99.90;;;;;;5039498;28;20330;-69
2023/05/16 07:34:17;;;;;;;;;;;11.80;99.90;;;;;;5053970;28;19960;-70
2023/05/16 07:36:42;;;;;;;;;;;12.00;99.90;;;;;;5054423;28;19947;-70
2023/05/16 07:39:08;;;;;;;;;;;12.10;99.90;;;;;;5038214;28;19983;-69
2023/05/16 07:41:33;;;;;;;;;;;12.20;99.90;;;;;;5034016;28;20422;-69
2023/05/16 07:43:59;;;;;;;;;;;12.30;99.90;;;;;;5033612;28;19972;-69
2023/05/16 07:46:25;;;;;;;;;;;12.40;99.90;;;;;;5033902;28;20011;-69
2023/05/16 07:48:51;;;;;;;;;;;12.30;99.90;;;;;;5041174;28;20016;-69
2023/05/16 07:51:16;;;;;;;;;;;12.20;99.90;;;;;;5044177;28;20028;-70
2023/05/16 07:53:42;;;;;;;;;;;12.20;99.90;;;;;;5054300;28;19924;-70
2023/05/16 07:56:07;;;;;;;;;;;12.30;99.90;;;;;;5046185;28;19931;-71
2023/05/16 07:58:33;;;;;;;;;;;12.60;99.90;;;;;;5083862;28;19925;-71
2023/05/16 08:00:59;;;;;;;;;;;12.80;99.90;;;;;;5072685;28;20475;-69
2023/05/16 08:03:24;;;;;;;;;;;12.90;99.90;;;;;;5059997;28;19925;-69
2023/05/16 08:05:50;;;;;;;;;;;13.00;99.90;;;;;;5062815;28;19933;-72
2023/05/16 08:08:16;;;;;;;;;;;13.00;99.90;;;;;;5064631;28;19931;-71
2023/05/16 08:10:42;;;;;;;;;;;12.80;99.90;;;;;;5063844;28;19925;-72
2023/05/16 08:13:08;;;;;;;;;;;12.80;99.90;;;;;;5059931;28;20393;-72
2023/05/16 08:15:34;;;;;;;;;;;12.70;99.90;;;;;;5043522;28;20015;-72
2023/05/16 08:18:00;;;;;;;;;;;12.70;99.90;;;;;;5039352;28;19963;-71
2023/05/16 08:20:26;;;;;;;;;;;12.40;99.90;;;;;;5074224;28;20398;-71
2023/05/16 08:22:51;;;;;;;;;;;12.00;99.90;;;;;;5068351;28;20930;-71
2023/05/16 08:25:17;;;;;;;;;;;11.80;99.90;;;;;;5071664;28;19978;-72
2023/05/16 08:27:48;;;;;;;;;;;11.70;99.90;;;;;;5065342;28;19928;-73
2023/05/16 08:30:13;;;;;;;;;;;11.80;99.90;;;;;;5071275;28;20295;-71
2023/05/16 08:32:39;;;;;;;;;;;11.90;99.90;;;;;;5058551;28;19928;-71
2023/05/16 08:35:05;;;;;;;;;;;12.00;99.90;;;;;;5082828;28;19924;-72
2023/05/16 08:37:31;;;;;;;;;;;12.30;99.90;;;;;;5073175;28;19930;-73
2023/05/16 08:39:57;;;;;;;;;;;12.50;99.90;;;;;;5073077;28;20045;-72
2023/05/16 08:42:22;;;;;;;;;;;12.70;99.90;;;;;;5062656;28;19955;-72
2023/05/16 08:44:48;;;;;;;;;;;12.80;99.90;;;;;;5066549;28;19925;-72
2023/05/16 08:47:20;;;;;;;;;;;12.70;99.90;;;;;;5060728;28;19935;-71
2023/05/16 08:49:50;;;;;;;;;;;12.50;99.90;;;;;;5053959;28;19935;-73
2023/05/16 08:52:18;;;;;;;;;;;12.30;99.90;;;;;;5061401;28;19972;-71
2023/05/16 08:54:44;;;;;;;;;;;12.20;99.90;;;;;;5060460;28;19964;-71
2023/05/16 08:57:10;;;;;;;;;;;12.20;99.90;;;;;;5058299;28;19920;-71
2023/05/16 08:59:39;;;;;;;;;;;12.10;99.90;;;;;;5068469;28;20375;-71
2023/05/16 09:02:05;;;;;;;;;;;12.20;99.90;;;;;;5058788;28;19931;-72
2023/05/16 09:04:30;;;;;;;;;;;12.30;99.90;;;;;;5070900;28;19924;-72
2023/05/16 09:06:56;;;;;;;;;;;12.50;99.90;;;;;;5067870;28;20302;-72
2023/05/16 09:09:22;;;;;;;;;;;12.90;99.90;;;;;;5068008;28;20394;-72
2023/05/16 09:11:48;;;;;;;;;;;13.10;99.90;;;;;;5072420;28;19975;-72
2023/05/16 09:14:13;;;;;;;;;;;13.00;99.90;;;;;;5071567;28;19968;-73
2023/05/16 09:16:39;;;;;;;;;;;12.90;99.90;;;;;;5063877;28;19931;-73
2023/05/16 09:19:05;;;;;;;;;;;13.10;99.90;;;;;;5042097;28;20298;-72
2023/05/16 09:21:34;;;;;;;;;;;13.10;99.90;;;;;;5062775;28;19977;-72
2023/05/16 09:24:03;;;;;;;;;;;13.10;99.90;;;;;;5054590;28;19925;-73
2023/05/16 09:26:30;;;;;;;;;;;13.10;99.90;;;;;;5038482;28;20298;-71
2023/05/16 09:28:55;;;;;;;;;;;13.00;99.90;;;;;;5062684;28;20275;-71
2023/05/16 09:31:22;;;;;;;;;;;13.00;99.90;;;;;;5057775;28;19925;-70
2023/05/16 09:33:49;;;;;;;;;;;13.00;99.90;;;;;;5056415;28;19925;-70
2023/05/16 09:36:14;;;;;;;;;;;12.60;99.90;;;;;;5065803;28;20033;-72
2023/05/16 09:38:40;;;;;;;;;;;11.90;99.90;;;;;;5055150;28;20394;-71
2023/05/16 09:41:07;;;;;;;;;;;11.50;99.90;;;;;;5059342;28;19968;-71
2023/05/16 09:43:39;;;;;;;;;;;11.40;99.90;;;;;;5045852;28;20003;-70
2023/05/16 09:46:05;;;;;;;;;;;11.60;99.90;;;;;;5067692;28;19925;-70
2023/05/16 09:48:31;;;;;;;;;;;11.90;99.90;;;;;;5071908;28;20382;-70
2023/05/16 09:51:01;;;;;;;;;;;12.20;99.90;;;;;;5067608;28;19925;-71
2023/05/16 09:53:28;;;;;;;;;;;12.30;99.90;;;;;;5069515;28;19946;-72
2023/05/16 09:56:01;;;;;;;;;;;12.40;99.90;;;;;;5056413;28;19925;-70
2023/05/16 09:58:30;;;;;;;;;;;12.40;99.90;;;;;;5046918;28;19921;-72
2023/05/16 10:00:57;;;;;;;;;;;12.30;99.90;;;;;;5061079;28;19931;-72
2023/05/16 10:03:23;;;;;;;;;;;12.20;99.90;;;;;;5068385;28;20296;-70
2023/05/16 10:05:49;;;;;;;;;;;12.10;99.90;;;;;;5047697;28;19925;-72
2023/05/16 10:08:15;;;;;;;;;;;12.40;99.90;;;;;;5055853;28;20437;-71
2023/05/16 10:10:40;;;;;;;;;;;12.70;99.90;;;;;;5057751;28;19932;-71
2023/05/16 10:13:07;;;;;;;;;;;13.20;99.90;;;;;;5073116;28;19971;-72
2023/05/16 10:15:35;;;;;;;;;;;13.40;99.90;;;;;;5060452;28;20023;-72
2023/05/16 10:18:02;;;;;;;;;;;13.50;99.90;;;;;;5037793;28;19925;-73
2023/05/16 10:20:28;;;;;;;;;;;13.60;99.90;;;;;;5048808;28;20371;-72
2023/05/16 10:22:54;;;;;;;;;;;13.60;99.90;;;;;;5052147;28;19940;-71
2023/05/16 10:25:27;;;;;;;;;;;13.30;99.90;;;;;;5057606;28;19925;-72
2023/05/16 10:27:53;;;;;;;;;;;13.00;99.90;;;;;;5034392;28;19925;-73
2023/05/16 10:30:19;;;;;;;;;;;12.70;99.90;;;;;;5054097;28;19970;-72
2023/05/16 10:32:45;;;;;;;;;;;12.80;99.90;;;;;;5051604;28;19925;-73
2023/05/16 10:35:11;;;;;;;;;;;13.00;99.90;;;;;;5052028;28;19932;-73
2023/05/16 10:37:36;;;;;;;;;;;12.80;99.90;;;;;;5069202;28;19924;-72
2023/05/16 10:40:04;;;;;;;;;;;12.60;99.90;;;;;;5072341;28;19924;-73
2023/05/16 10:42:31;;;;;;;;;;;12.90;99.90;;;;;;5067242;28;19932;-72
2023/05/16 10:45:08;;;;;;;;;;;13.20;99.90;;;;;;5053190;28;19925;-71
2023/05/16 10:47:33;;;;;;;;;;;13.50;99.90;;;;;;5072271;28;19924;-72
2023/05/16 10:49:59;;;;;;;;;;;13.90;99.90;;;;;;5075254;28;20019;-73
2023/05/16 10:52:32;;;;;;;;;;;14.00;99.90;;;;;;5054748;28;19967;-72
2023/05/16 10:55:01;;;;;;;;;;;14.00;99.90;;;;;;5074522;28;19947;-72
2023/05/16 10:57:26;;;;;;;;;;;14.10;99.90;;;;;;5073515;28;19924;-72
2023/05/16 10:59:53;;;;;;;;;;;14.00;99.90;;;;;;5073257;28;19925;-72
2023/05/16 11:02:22;;;;;;;;;;;14.00;99.90;;;;;;5058403;28;20474;-73
2023/05/16 11:04:48;;;;;;;;;;;14.10;99.90;;;;;;5065713;28;19931;-71
2023/05/16 11:07:16;;;;;;;;;;;13.90;99.90;;;;;;5055828;28;20248;-72
2023/05/16 11:09:45;;;;;;;;;;;13.60;99.90;;;;;;5068712;28;19931;-72
2023/05/16 11:12:11;;;;;;;;;;;13.80;99.90;;;;;;5063831;28;19925;-71
2023/05/16 11:14:44;;;;;;;;;;;14.10;99.90;;;;;;5071483;28;19980;-71
2023/05/16 11:17:13;;;;;;;;;;;14.30;99.90;;;;;;5068099;28;19924;-72
2023/05/16 11:19:42;;;;;;;;;;;14.40;99.80;;;;;;5069413;28;20377;-72
2023/05/16 11:22:10;;;;;;;;;;;14.60;99.90;;;;;;5086072;28;20369;-70
2023/05/16 11:24:37;;;;;;;;;;;14.70;99.90;;;;;;5096289;28;19928;-71
2023/05/16 11:27:03;;;;;;;;;;;14.60;99.10;;;;;;5071757;28;20358;-70
2023/05/16 11:29:33;;;;;;;;;;;14.50;99.90;;;;;;5066366;28;19924;-72
2023/05/16 11:31:59;;;;;;;;;;;14.30;99.80;;;;;;5064867;28;19925;-70
2023/05/16 11:34:25;;;;;;;;;;;14.00;99.90;;;;;;5071032;28;19932;-72
2023/05/16 11:36:51;;;;;;;;;;;13.90;99.90;;;;;;5063466;28;20310;-70
2023/05/16 11:39:18;;;;;;;;;;;13.60;99.90;;;;;;5069219;28;19985;-71
2023/05/16 11:41:44;;;;;;;;;;;13.40;99.90;;;;;;5064864;28;19931;-70
2023/05/16 11:44:13;;;;;;;;;;;13.20;99.90;;;;;;5075412;28;20286;-72
2023/05/16 11:46:39;;;;;;;;;;;13.20;99.90;;;;;;5075053;28;20015;-72
2023/05/16 11:49:06;;;;;;;;;;;13.50;99.90;;;;;;5064902;28;19929;-72
2023/05/16 11:51:33;;;;;;;;;;;14.00;99.90;;;;;;5070194;28;20345;-72
2023/05/16 11:53:59;;;;;;;;;;;14.00;99.90;;;;;;5065672;28;19924;-72
2023/05/16 11:56:26;;;;;;;;;;;13.80;99.90;;;;;;5084033;28;19925;-72
2023/05/16 11:58:55;;;;;;;;;;;13.70;99.90;;;;;;5060530;28;19975;-70
2023/05/16 12:01:20;;;;;;;;;;;13.60;99.90;;;;;;5057816;28;19924;-73
2023/05/16 12:03:52;;;;;;;;;;;13.50;99.90;;;;;;5061948;28;19924;-71
2023/05/16 12:06:18;;;;;;;;;;;13.40;99.90;;;;;;5052079;28;19997;-72
2023/05/16 12:08:50;;;;;;;;;;;13.40;99.90;;;;;;5069437;28;20414;-70
2023/05/16 12:11:16;;;;;;;;;;;13.40;99.90;;;;;;5070046;28;19924;-73
2023/05/16 12:13:42;;;;;;;;;;;13.40;99.90;;;;;;5049676;28;19936;-73
2023/05/16 12:16:20;;;;;;;;;;;13.60;99.90;;;;;;5084238;28;19924;-76
2023/05/16 12:18:46;;;;;;;;;;;13.60;99.90;;;;;;5059248;28;19932;-72
2023/05/16 12:21:12;;;;;;;;;;;13.50;99.90;;;;;;5054557;28;19925;-74
2023/05/16 12:23:40;;;;;;;;;;;13.40;99.90;;;;;;5069761;28;20020;-73
2023/05/16 12:26:07;;;;;;;;;;;13.40;99.90;;;;;;5070162;28;19958;-73
2023/05/16 12:28:33;;;;;;;;;;;13.40;99.90;;;;;;5058523;28;19947;-72
2023/05/16 12:30:59;;;;;;;;;;;13.40;99.90;;;;;;5040288;28;19932;-73
2023/05/16 12:33:25;;;;;;;;;;;13.40;99.90;;;;;;5048486;28;20421;-72
2023/05/16 12:35:51;;;;;;;;;;;13.40;99.90;;;;;;5043062;28;20006;-73
2023/05/16 12:38:18;;;;;;;;;;;13.50;99.90;;;;;;5061317;28;19920;-72
2023/05/16 12:40:45;;;;;;;;;;;13.40;99.90;;;;;;5057586;28;19925;-72
2023/05/16 12:43:18;;;;;;;;;;;13.20;99.90;;;;;;5064472;28;19932;-71
2023/05/16 12:45:51;;;;;;;;;;;13.00;99.90;;;;;;5068940;28;20011;-70
2023/05/16 12:48:17;;;;;;;;;;;12.70;99.90;;;;;;5070313;28;20322;-71
2023/05/16 12:50:44;;;;;;;;;;;12.40;99.90;;;;;;5056904;28;19925;-72
2023/05/16 12:53:14;;;;;;;;;;;12.20;99.90;;;;;;5048185;28;19936;-71
2023/05/16 12:55:40;;;;;;;;;;;12.20;99.90;;;;;;5061637;28;20310;-71
2023/05/16 12:58:06;;;;;;;;;;;12.40;99.90;;;;;;5061185;28;19936;-71
2023/05/16 13:00:32;;;;;;;;;;;12.70;99.90;;;;;;5053603;28;19925;-71
2023/05/16 13:02:57;;;;;;;;;;;13.00;99.90;;;;;;5068934;28;19935;-72
2023/05/16 13:05:23;;;;;;;;;;;13.30;99.90;;;;;;5070053;28;19994;-71
2023/05/16 13:07:50;;;;;;;;;;;13.60;99.90;;;;;;5069218;28;19968;-72
2023/05/16 13:10:16;;;;;;;;;;;13.90;99.90;;;;;;5062104;28;20396;-73
2023/05/16 13:12:41;;;;;;;;;;;14.10;99.90;;;;;;5060889;28;20026;-72
2023/05/16 13:15:08;;;;;;;;;;;13.90;99.90;;;;;;5042590;28;20067;-73
2023/05/16 13:17:34;;;;;;;;;;;14.10;99.90;;;;;;5058155;28;20014;-71
2023/05/16 13:20:00;;;;;;;;;;;14.40;99.90;;;;;;5063972;28;20036;-72
2023/05/16 13:22:25;;;;;;;;;;;14.80;99.90;;;;;;5074208;28;19924;-72
2023/05/16 13:24:51;;;;;;;;;;;14.80;99.70;;;;;;5056977;28;19975;-71
2023/05/16 13:27:16;;;;;;;;;;;14.30;99.90;;;;;;5073251;28;19932;-71
2023/05/16 13:29:42;;;;;;;;;;;14.00;99.90;;;;;;5070662;28;19948;-70
2023/05/16 13:32:08;;;;;;;;;;;13.70;99.90;;;;;;5070800;28;20430;-71
2023/05/16 13:34:34;;;;;;;;;;;13.50;99.90;;;;;;5069288;28;19924;-72
2023/05/16 13:36:59;;;;;;;;;;;13.50;99.90;;;;;;5073408;28;20382;-71
2023/05/16 13:39:25;;;;;;;;;;;13.50;99.90;;;;;;5073025;28;19924;-71
2023/05/16 13:41:51;;;;;;;;;;;13.60;99.90;;;;;;5068893;28;19924;-73
2023/05/16 13:44:17;;;;;;;;;;;13.90;99.90;;;;;;5040824;28;19925;-73
2023/05/16 13:46:43;;;;;;;;;;;14.10;99.90;;;;;;5069115;28;19931;-73
2023/05/16 13:49:08;;;;;;;;;;;14.10;99.90;;;;;;5067045;28;20011;-72
2023/05/16 13:51:34;;;;;;;;;;;14.00;99.90;;;;;;5062738;28;19990;-71
2023/05/16 13:53:59;;;;;;;;;;;13.90;99.90;;;;;;5036503;28;20379;-71
2023/05/16 13:56:25;;;;;;;;;;;13.80;99.90;;;;;;5053647;28;20019;-73
2023/05/16 13:58:51;;;;;;;;;;;13.70;99.90;;;;;;5073272;28;20359;-71
2023/05/16 14:01:16;;;;;;;;;;;13.70;99.90;;;;;;5040231;28;19925;-73
2023/05/16 14:03:42;;;;;;;;;;;13.90;99.90;;;;;;5067144;28;19928;-73
2023/05/16 14:06:09;;;;;;;;;;;14.00;99.90;;;;;;5066825;28;19924;-75
2023/05/16 14:08:34;;;;;;;;;;;14.10;99.90;;;;;;5038705;28;19925;-71
2023/05/16 14:11:00;;;;;;;;;;;14.40;99.90;;;;;;5072883;28;20018;-72
2023/05/16 14:13:26;;;;;;;;;;;14.70;99.90;;;;;;5078841;28;19936;-72
2023/05/16 14:15:51;;;;;;;;;;;14.90;99.90;;;;;;5077656;28;19925;-71